Tibidy — FGD5859 — position and weather

sailwx.info

Track history (hours):
 
Tides and Currents Weather Stations Pressure Air Temp Water Temp Dewpoint Dewpoint Depression Visibility Wind Speed Wind Dir Waves Ship Positions

Tibidy

Last reported at 2017-Nov-25 02:00 UTC. Time now 2017-Nov-25 02:11 UTC.
Position N 48°23' W 004°30'.

Length 34 m.

Type: Passenger vessel. MMSI: 227574020.

Date/timePositionNaut miles runAvg speedWind from/ knotsBaromVisibWave heightAir tempDewpointWater temp
2017-Nov-25 02:00N 48°23' W 004°30'0 0.0
2017-Nov-25 01:31N 48°23' W 004°30'0 0.0
2017-Nov-25 01:01N 48°23' W 004°30'0 0.0
2017-Nov-25 00:30N 48°23' W 004°30'0 0.0
2017-Nov-25 00:00N 48°23' W 004°30'0 0.0
2017-Nov-24 23:31N 48°23' W 004°30'0 0.0
2017-Nov-24 23:01N 48°23' W 004°30'0 0.0
2017-Nov-24 22:31N 48°23' W 004°30'0 0.0
2017-Nov-24 22:01N 48°23' W 004°30'0 0.0
2017-Nov-24 21:31N 48°23' W 004°30'0 0.0
2017-Nov-24 21:01N 48°23' W 004°30'0 0.0
2017-Nov-24 20:31N 48°23' W 004°30'0 0.0
2017-Nov-24 20:01N 48°23' W 004°30'0 0.0
2017-Nov-24 19:31N 48°23' W 004°30'0 0.0
2017-Nov-24 19:01N 48°23' W 004°30'0 0.0
2017-Nov-24 18:31N 48°23' W 004°30'0 0.0
2017-Nov-24 18:01N 48°23' W 004°30'0 0.0
2017-Nov-24 17:31N 48°23' W 004°30'0 0.0
2017-Nov-24 17:01N 48°23' W 004°30'0 0.0
2017-Nov-24 16:31N 48°23' W 004°30'713.1
2017-Nov-24 16:01N 48°17' W 004°25'4 7.7
2017-Nov-24 15:30N 48°20' W 004°28'3 5.6
2017-Nov-24 15:01N 48°23' W 004°30'0 0.0
2017-Nov-24 14:30N 48°23' W 004°30'0 0.0
2017-Nov-24 14:00N 48°23' W 004°30'0 0.0
2017-Nov-24 13:31N 48°23' W 004°30'0 0.0
2017-Nov-24 13:00N 48°23' W 004°30'0 0.0
2017-Nov-24 12:30N 48°23' W 004°30'0 0.0
2017-Nov-24 12:00N 48°23' W 004°30'0 0.0
2017-Nov-24 11:31N 48°23' W 004°30'0 0.0
2017-Nov-24 11:01N 48°23' W 004°30'0 0.0
2017-Nov-24 10:31N 48°23' W 004°30'0 0.0
2017-Nov-24 10:01N 48°23' W 004°30'0 0.0
2017-Nov-24 09:30N 48°23' W 004°30'0 0.0
2017-Nov-24 09:00N 48°23' W 004°30'0 0.0
2017-Nov-24 08:30N 48°23' W 004°30'0 0.0
2017-Nov-24 08:00N 48°23' W 004°30'4 8.5
2017-Nov-24 07:31N 48°19' W 004°27'2 4.7
2017-Nov-24 07:00N 48°17' W 004°25'611.2
2017-Nov-24 06:31N 48°22' W 004°29'1 1.9
2017-Nov-24 06:00N 48°23' W 004°30'0 0.4
2017-Nov-24 05:30N 48°23' W 004°30'0 0.0
2017-Nov-24 05:00N 48°23' W 004°30'0 0.0
2017-Nov-24 04:30N 48°23' W 004°30'0 0.0
2017-Nov-24 04:01N 48°23' W 004°30'0 0.0
2017-Nov-24 03:31N 48°23' W 004°30'0 0.0
2017-Nov-24 03:00N 48°23' W 004°30'0 0.0
2017-Nov-24 02:30N 48°23' W 004°30'0 0.0
2017-Nov-24 02:01N 48°23' W 004°30'0 0.0
2017-Nov-24 01:31N 48°23' W 004°30'0 0.0
2017-Nov-24 01:00N 48°23' W 004°30'0 0.0
2017-Nov-24 00:30N 48°23' W 004°30'0 0.0
2017-Nov-24 00:00N 48°23' W 004°30'0 0.0
2017-Nov-23 23:30N 48°23' W 004°30'0 0.0
2017-Nov-23 23:01N 48°23' W 004°30'0 0.0
2017-Nov-23 22:31N 48°23' W 004°30'0 0.0
2017-Nov-23 22:00N 48°23' W 004°30'0 0.0
2017-Nov-23 21:31N 48°23' W 004°30'0 0.0
2017-Nov-23 21:01N 48°23' W 004°30'0 0.0
2017-Nov-23 20:31N 48°23' W 004°30'0 0.0
2017-Nov-23 20:01N 48°23' W 004°30'0 0.0
2017-Nov-23 19:30N 48°23' W 004°30'0 0.0
2017-Nov-23 19:00N 48°23' W 004°30'0 0.0
2017-Nov-23 18:30N 48°23' W 004°30'0 0.0
2017-Nov-23 18:00N 48°23' W 004°30'0 0.0
2017-Nov-23 17:30N 48°23' W 004°30'0 0.0
2017-Nov-23 17:00N 48°23' W 004°30'0 0.0
2017-Nov-23 16:30N 48°23' W 004°30'0 0.0
2017-Nov-23 16:00N 48°23' W 004°30'510.5
2017-Nov-23 15:31N 48°18' W 004°31'4 7.4
2017-Nov-23 15:01N 48°21' W 004°29'2 3.2
2017-Nov-23 14:30N 48°23' W 004°30'0 0.0
2017-Nov-23 14:00N 48°23' W 004°30'0 0.0
2017-Nov-23 13:30N 48°23' W 004°30'0 0.0
2017-Nov-23 13:00N 48°23' W 004°30'2 3.8
2017-Nov-23 12:30N 48°21' W 004°29'3 6.7
2017-Nov-23 12:00N 48°18' W 004°27'2 3.9
2017-Nov-23 11:31N 48°20' W 004°28'3 6.6
2017-Nov-23 11:00N 48°23' W 004°30'0 0.0
2017-Nov-23 10:30N 48°23' W 004°30'0 0.0
2017-Nov-23 10:00N 48°23' W 004°30'0 0.0
2017-Nov-23 09:30N 48°23' W 004°30'0 0.0
2017-Nov-23 09:01N 48°23' W 004°30'0 0.0
2017-Nov-23 08:30N 48°23' W 004°30'0 0.0
2017-Nov-23 08:01N 48°23' W 004°30'0 0.0
2017-Nov-23 07:30N 48°23' W 004°30'4 7.4
2017-Nov-23 07:00N 48°19' W 004°29'1 1.4
2017-Nov-23 06:31N 48°20' W 004°29'3 6.0
2017-Nov-23 06:01N 48°23' W 004°30'0 0.0
2017-Nov-23 05:31N 48°23' W 004°30'0 0.0
2017-Nov-23 05:01N 48°23' W 004°30'0 0.0
2017-Nov-23 04:30N 48°23' W 004°30'0 0.0
2017-Nov-23 04:01N 48°23' W 004°30'0 0.0
2017-Nov-23 03:31N 48°23' W 004°30'0 0.0
2017-Nov-23 03:01N 48°23' W 004°30'0 0.0
2017-Nov-23 02:31N 48°23' W 004°30'0 0.0
2017-Nov-23 02:01N 48°23' W 004°30'0 0.0
2017-Nov-23 01:31N 48°23' W 004°30'0 0.0
2017-Nov-23 01:01N 48°23' W 004°30'0 0.0
2017-Nov-23 00:31N 48°23' W 004°30'0 0.0
2017-Nov-23 00:00N 48°23' W 004°30'0 0.0
2017-Nov-22 23:31N 48°23' W 004°30'0 0.0
2017-Nov-22 23:01N 48°23' W 004°30'0 0.0
2017-Nov-22 22:31N 48°23' W 004°30'0 0.0
2017-Nov-22 22:01N 48°23' W 004°30'0 0.0
2017-Nov-22 21:31N 48°23' W 004°30'0 0.0
2017-Nov-22 21:01N 48°23' W 004°30'0 0.0
2017-Nov-22 20:31N 48°23' W 004°30'0 0.0
2017-Nov-22 20:01N 48°23' W 004°30'0 0.0
2017-Nov-22 19:31N 48°23' W 004°30'  
2017-Nov-20 00:30N 48°23' W 004°30'0 0.0
2017-Nov-20 00:00N 48°23' W 004°30'0 0.0
2017-Nov-19 23:30N 48°23' W 004°30'0 0.0
2017-Nov-19 23:00N 48°23' W 004°30'0 0.0
2017-Nov-19 22:30N 48°23' W 004°30'0 0.0
2017-Nov-19 22:00N 48°23' W 004°30'0 0.0
2017-Nov-19 21:31N 48°23' W 004°30'0 0.0
2017-Nov-19 21:00N 48°23' W 004°30'0 0.0
2017-Nov-19 20:30N 48°23' W 004°30'0 0.0
2017-Nov-19 20:00N 48°23' W 004°30'0 0.0
2017-Nov-19 19:30N 48°23' W 004°30'0 0.0
2017-Nov-19 19:00N 48°23' W 004°30'0 0.0
2017-Nov-19 18:30N 48°23' W 004°30'0 0.0
2017-Nov-19 18:00N 48°23' W 004°30'0 0.0
2017-Nov-19 17:30N 48°23' W 004°30'0 0.0
2017-Nov-19 17:00N 48°23' W 004°30'0 0.0
2017-Nov-19 16:30N 48°23' W 004°30'0 0.0
2017-Nov-19 16:00N 48°23' W 004°30'0 0.0
2017-Nov-19 15:30N 48°23' W 004°30'0 0.0
2017-Nov-19 15:00N 48°23' W 004°30'0 0.0
2017-Nov-19 14:30N 48°23' W 004°30'0 0.0
2017-Nov-19 14:00N 48°23' W 004°30'0 0.0
2017-Nov-19 13:30N 48°23' W 004°30'0 0.0
2017-Nov-19 13:00N 48°23' W 004°30'0 0.0
2017-Nov-19 12:31N 48°23' W 004°30'0 0.0
2017-Nov-19 12:00N 48°23' W 004°30'0 0.0
2017-Nov-19 11:31N 48°23' W 004°30'0 0.0
2017-Nov-19 11:01N 48°23' W 004°30'0 0.0
2017-Nov-19 10:30N 48°23' W 004°30'0 0.0
2017-Nov-19 10:01N 48°23' W 004°30'0 0.0
2017-Nov-19 09:30N 48°23' W 004°30'0 0.0
2017-Nov-19 09:00N 48°23' W 004°30'0 0.0
2017-Nov-19 08:31N 48°23' W 004°30'0 0.0
2017-Nov-19 08:01N 48°23' W 004°30'0 0.0
2017-Nov-19 07:30N 48°23' W 004°30'0 0.0
2017-Nov-19 07:01N 48°23' W 004°30'0 0.0
2017-Nov-19 06:30N 48°23' W 004°30'0 0.0
2017-Nov-19 06:01N 48°23' W 004°30'0 0.0
2017-Nov-19 05:30N 48°23' W 004°30'0 0.0
2017-Nov-19 05:01N 48°23' W 004°30'0 0.0
2017-Nov-19 04:30N 48°23' W 004°30'0 0.0
2017-Nov-19 04:00N 48°23' W 004°30'0 0.0
2017-Nov-19 03:30N 48°23' W 004°30'0 0.0
2017-Nov-19 03:00N 48°23' W 004°30'0 0.0
2017-Nov-19 02:31N 48°23' W 004°30'0 0.0
2017-Nov-19 02:00N 48°23' W 004°30'0 0.0
2017-Nov-19 01:30N 48°23' W 004°30'0 0.0
2017-Nov-19 01:00N 48°23' W 004°30'0 0.0
2017-Nov-19 00:30N 48°23' W 004°30'0 0.0
2017-Nov-19 00:00N 48°23' W 004°30'0 0.0
2017-Nov-18 23:31N 48°23' W 004°30'0 0.0
2017-Nov-18 23:00N 48°23' W 004°30'0 0.0
2017-Nov-18 22:30N 48°23' W 004°30'0 0.0
2017-Nov-18 22:00N 48°23' W 004°30'0 0.0
2017-Nov-18 21:30N 48°23' W 004°30'0 0.0
2017-Nov-18 21:00N 48°23' W 004°30'0 0.0
2017-Nov-18 20:30N 48°23' W 004°30'0 0.0
2017-Nov-18 20:00N 48°23' W 004°30'0 0.0
2017-Nov-18 19:30N 48°23' W 004°30'0 0.0
2017-Nov-18 19:00N 48°23' W 004°30'0 0.0
2017-Nov-18 18:30N 48°23' W 004°30'0 0.0
2017-Nov-18 18:00N 48°23' W 004°30'0 0.0
2017-Nov-18 17:30N 48°23' W 004°30'0 0.0
2017-Nov-18 17:00N 48°23' W 004°30'0 0.0
2017-Nov-18 16:30N 48°23' W 004°30'0 0.0
2017-Nov-18 16:00N 48°23' W 004°30'0 0.0
2017-Nov-18 15:30N 48°23' W 004°30'0 0.0
2017-Nov-18 15:00N 48°23' W 004°30'0 0.0
2017-Nov-18 14:30N 48°23' W 004°30'0 0.0
2017-Nov-18 14:00N 48°23' W 004°30'0 0.0
2017-Nov-18 13:31N 48°23' W 004°30'0 0.0
2017-Nov-18 13:00N 48°23' W 004°30'0 0.0
2017-Nov-18 12:30N 48°23' W 004°30'0 0.0
2017-Nov-18 12:01N 48°23' W 004°30'0 0.0
2017-Nov-18 11:31N 48°23' W 004°30'0 0.0
2017-Nov-18 11:00N 48°23' W 004°30'0 0.0
2017-Nov-18 10:31N 48°23' W 004°30'0 0.0
2017-Nov-18 10:01N 48°23' W 004°30'0 0.0
2017-Nov-18 09:31N 48°23' W 004°30'0 0.0
2017-Nov-18 09:01N 48°23' W 004°30'0 0.0
2017-Nov-18 08:31N 48°23' W 004°30'0 0.0
2017-Nov-18 08:01N 48°23' W 004°30'0 0.0
2017-Nov-18 07:31N 48°23' W 004°30'0 0.0
2017-Nov-18 07:01N 48°23' W 004°30'0 0.0
2017-Nov-18 06:30N 48°23' W 004°30'0 0.0
2017-Nov-18 06:01N 48°23' W 004°30'0 0.0
2017-Nov-18 05:31N 48°23' W 004°30'0 0.0
2017-Nov-18 05:01N 48°23' W 004°30'0 0.0
2017-Nov-18 04:31N 48°23' W 004°30'0 0.0
2017-Nov-18 04:01N 48°23' W 004°30'0 0.0
2017-Nov-18 03:31N 48°23' W 004°30'0 0.0
2017-Nov-18 03:01N 48°23' W 004°30'0 0.0
2017-Nov-18 02:31N 48°23' W 004°30'0 0.0
2017-Nov-18 02:01N 48°23' W 004°30'0 0.0
2017-Nov-18 01:31N 48°23' W 004°30'0 0.0
2017-Nov-18 01:01N 48°23' W 004°30'0 0.0
2017-Nov-18 00:31N 48°23' W 004°30'0 0.0
2017-Nov-18 00:01N 48°23' W 004°30'0 0.0
2017-Nov-17 23:31N 48°23' W 004°30'0 0.0
2017-Nov-17 23:01N 48°23' W 004°30'0 0.0
2017-Nov-17 22:31N 48°23' W 004°30'0 0.0
2017-Nov-17 22:01N 48°23' W 004°30'0 0.0
2017-Nov-17 21:30N 48°23' W 004°30'0 0.0
2017-Nov-17 21:01N 48°23' W 004°30'0 0.0
2017-Nov-17 20:31N 48°23' W 004°30'0 0.0
2017-Nov-17 20:00N 48°23' W 004°30'0 0.0
2017-Nov-17 19:31N 48°23' W 004°30'0 0.0
2017-Nov-17 19:00N 48°23' W 004°30'0 0.0
2017-Nov-17 18:31N 48°23' W 004°30'0 0.0
2017-Nov-17 18:01N 48°23' W 004°30'0 0.0
2017-Nov-17 17:31N 48°23' W 004°30'0 0.0
2017-Nov-17 17:01N 48°23' W 004°30'0 0.0
2017-Nov-17 16:30N 48°23' W 004°30'0 0.0
2017-Nov-17 16:00N 48°23' W 004°30'510.4
2017-Nov-17 15:31N 48°18' W 004°31'4 7.2
2017-Nov-17 15:00N 48°21' W 004°29'2 3.3
2017-Nov-17 14:30N 48°23' W 004°30'0 0.0
2017-Nov-17 14:01N 48°23' W 004°30'0 0.0
2017-Nov-17 13:31N 48°23' W 004°30'0 0.0
2017-Nov-17 13:00N 48°23' W 004°30'3 5.6
2017-Nov-17 12:31N 48°20' W 004°29'3 5.6
2017-Nov-17 12:01N 48°18' W 004°27'2 3.9
2017-Nov-17 11:30N 48°20' W 004°28'3 6.9
2017-Nov-17 11:00N 48°23' W 004°30'0 0.0
2017-Nov-17 10:30N 48°23' W 004°30'0 0.0
2017-Nov-17 10:00N 48°23' W 004°30'0 0.0
2017-Nov-17 09:30N 48°23' W 004°30'0 0.0
2017-Nov-17 09:01N 48°23' W 004°30'0 0.0
2017-Nov-17 08:31N 48°23' W 004°30'0 0.0
2017-Nov-17 08:00N 48°23' W 004°30'0 0.0
2017-Nov-17 07:31N 48°23' W 004°30'4 7.0
2017-Nov-17 07:00N 48°19' W 004°29'1 1.0
2017-Nov-17 06:30N 48°20' W 004°29'3 6.0
2017-Nov-17 06:00N 48°23' W 004°30'0 0.3
2017-Nov-17 05:31N 48°23' W 004°30'0 0.0
2017-Nov-17 05:00N 48°23' W 004°30'0 0.0
2017-Nov-17 04:30N 48°23' W 004°30'0 0.0
2017-Nov-17 04:01N 48°23' W 004°30'0 0.0
2017-Nov-17 03:30N 48°23' W 004°30'0 0.0
2017-Nov-17 03:01N 48°23' W 004°30'0 0.0
2017-Nov-17 02:30N 48°23' W 004°30'0 0.0
2017-Nov-17 02:00N 48°23' W 004°30'0 0.0
2017-Nov-17 01:30N 48°23' W 004°30'0 0.0
2017-Nov-17 01:01N 48°23' W 004°30'0 0.0
2017-Nov-17 00:30N 48°23' W 004°30'0 0.0
2017-Nov-17 00:00N 48°23' W 004°30'0 0.0
2017-Nov-16 23:30N 48°23' W 004°30'0 0.0
2017-Nov-16 23:00N 48°23' W 004°30'0 0.0
2017-Nov-16 22:30N 48°23' W 004°30'0 0.0
2017-Nov-16 22:01N 48°23' W 004°30'0 0.0
2017-Nov-16 21:30N 48°23' W 004°30'0 0.0
2017-Nov-16 21:00N 48°23' W 004°30'0 0.0
2017-Nov-16 20:30N 48°23' W 004°30'0 0.0
2017-Nov-16 20:00N 48°23' W 004°30'0 0.0
2017-Nov-16 19:30N 48°23' W 004°30'0 0.0
2017-Nov-16 19:00N 48°23' W 004°30'0 0.0
2017-Nov-16 18:31N 48°23' W 004°30'0 0.0
2017-Nov-16 18:00N 48°23' W 004°30'0 0.0
2017-Nov-16 17:30N 48°23' W 004°30'0 0.0
2017-Nov-16 17:00N 48°23' W 004°30'0 0.0
2017-Nov-16 16:30N 48°23' W 004°30'4 8.8
2017-Nov-16 16:01N 48°19' W 004°27'0 0.9
2017-Nov-16 15:31N 48°19' W 004°27'5 9.5
2017-Nov-16 15:00N 48°23' W 004°30'0 0.0
2017-Nov-16 14:31N 48°23' W 004°30'0 0.0
2017-Nov-16 14:00N 48°23' W 004°30'0 0.0
2017-Nov-16 13:30N 48°23' W 004°30'0 0.0
2017-Nov-16 13:00N 48°23' W 004°30'0 0.0
2017-Nov-16 12:30N 48°23' W 004°30'0 0.0
2017-Nov-16 12:00N 48°23' W 004°30'0 0.0
2017-Nov-16 11:30N 48°23' W 004°30'0 0.0
2017-Nov-16 11:00N 48°23' W 004°30'0 0.0
2017-Nov-16 10:30N 48°23' W 004°30'0 0.0
2017-Nov-16 10:00N 48°23' W 004°30'0 0.0
2017-Nov-16 09:30N 48°23' W 004°30'0 0.0
2017-Nov-16 09:00N 48°23' W 004°30'0 0.0
2017-Nov-16 08:30N 48°23' W 004°30'0 0.0
2017-Nov-16 08:00N 48°23' W 004°30'0 0.0
2017-Nov-16 07:30N 48°23' W 004°30'611.1
2017-Nov-16 07:01N 48°18' W 004°25'3 5.0
2017-Nov-16 06:31N 48°20' W 004°28'3 6.3
2017-Nov-16 06:00N 48°23' W 004°30'0 0.0
2017-Nov-16 05:31N 48°23' W 004°30'0 0.0
2017-Nov-16 05:00N 48°23' W 004°30'0 0.0
2017-Nov-16 04:30N 48°23' W 004°30'0 0.0
2017-Nov-16 04:01N 48°23' W 004°30'0 0.0
2017-Nov-16 03:30N 48°23' W 004°30'0 0.0
2017-Nov-16 03:00N 48°23' W 004°30'0 0.0
2017-Nov-16 02:30N 48°23' W 004°30'0 0.0
2017-Nov-16 02:00N 48°23' W 004°30'0 0.0
2017-Nov-16 01:31N 48°23' W 004°30'0 0.0
2017-Nov-16 01:00N 48°23' W 004°30'0 0.0
2017-Nov-16 00:30N 48°23' W 004°30'0 0.0
2017-Nov-16 00:00N 48°23' W 004°30'0 0.0
2017-Nov-15 23:30N 48°23' W 004°30'0 0.0
2017-Nov-15 23:00N 48°23' W 004°30'0 0.0
2017-Nov-15 22:30N 48°23' W 004°30'0 0.0
2017-Nov-15 22:01N 48°23' W 004°30'0 0.0
2017-Nov-15 21:30N 48°23' W 004°30'0 0.0
2017-Nov-15 21:00N 48°23' W 004°30'0 0.0
2017-Nov-15 20:30N 48°23' W 004°30'0 0.0
2017-Nov-15 20:00N 48°23' W 004°30'0 0.0
2017-Nov-15 19:30N 48°23' W 004°30'0 0.0
2017-Nov-15 19:00N 48°23' W 004°30'0 0.0
2017-Nov-15 18:30N 48°23' W 004°30'0 0.0
2017-Nov-15 18:00N 48°23' W 004°30'0 0.0
2017-Nov-15 17:31N 48°23' W 004°30'0 0.0
2017-Nov-15 17:00N 48°23' W 004°30'0 0.0
2017-Nov-15 16:30N 48°23' W 004°30'713.2
2017-Nov-15 16:00N 48°17' W 004°25'611.6
2017-Nov-15 15:30N 48°22' W 004°29'1 1.6
2017-Nov-15 15:01N 48°23' W 004°30'0 0.0
2017-Nov-15 14:30N 48°23' W 004°30'0 0.0
2017-Nov-15 14:00N 48°23' W 004°30'0 0.0
2017-Nov-15 13:30N 48°23' W 004°30'0 0.0
2017-Nov-15 13:00N 48°23' W 004°30'0 0.0
2017-Nov-15 12:30N 48°23' W 004°30'0 0.0
2017-Nov-15 12:00N 48°23' W 004°30'0 0.0
2017-Nov-15 11:30N 48°23' W 004°30'0 0.0
2017-Nov-15 11:01N 48°23' W 004°30'0 0.0
2017-Nov-15 10:30N 48°23' W 004°30'0 0.0
2017-Nov-15 10:01N 48°23' W 004°30'611.6
2017-Nov-15 09:31N 48°19' W 004°37'2 3.1
2017-Nov-15 09:00N 48°20' W 004°39'612.6
2017-Nov-15 08:30N 48°22' W 004°30'1 2.1
2017-Nov-15 08:00N 48°23' W 004°30'0 0.0
2017-Nov-15 07:31N 48°23' W 004°30'510.4
2017-Nov-15 07:00N 48°18' W 004°26'2 4.1
2017-Nov-15 06:31N 48°20' W 004°28'3 6.6
2017-Nov-15 06:01N 48°23' W 004°30'0 0.0
2017-Nov-15 05:31N 48°23' W 004°30'0 0.0
2017-Nov-15 05:01N 48°23' W 004°30'0 0.0
2017-Nov-15 04:31N 48°23' W 004°30'0 0.0
2017-Nov-15 04:01N 48°23' W 004°30'0 0.0
2017-Nov-15 03:31N 48°23' W 004°30'0 0.0
2017-Nov-15 03:01N 48°23' W 004°30'0 0.0
2017-Nov-15 02:31N 48°23' W 004°30'0 0.0
2017-Nov-15 02:00N 48°23' W 004°30'  
Track history (hours):
 
Tides and Currents Weather Stations Pressure Air Temp Water Temp Dewpoint Dewpoint Depression Visibility Wind Speed Wind Dir Waves Ship Positions

Tibidy

Last reported at 2017-Nov-25 02:00 UTC. Time now 2017-Nov-25 02:11 UTC.
Position N 48°23' W 004°30'.

Length 34 m.

Type: Passenger vessel. MMSI: 227574020.

Date/timePositionNaut miles runAvg speedWind from/ knotsBaromVisibWave heightAir tempDewpointWater temp
2017-Nov-25 02:00N 48°23' W 004°30'0 0.0
2017-Nov-25 01:31N 48°23' W 004°30'0 0.0
2017-Nov-25 01:01N 48°23' W 004°30'0 0.0
2017-Nov-25 00:30N 48°23' W 004°30'0 0.0
2017-Nov-25 00:00N 48°23' W 004°30'0 0.0
2017-Nov-24 23:31N 48°23' W 004°30'0 0.0
2017-Nov-24 23:01N 48°23' W 004°30'0 0.0
2017-Nov-24 22:31N 48°23' W 004°30'0 0.0
2017-Nov-24 22:01N 48°23' W 004°30'0 0.0
2017-Nov-24 21:31N 48°23' W 004°30'0 0.0
2017-Nov-24 21:01N 48°23' W 004°30'0 0.0
2017-Nov-24 20:31N 48°23' W 004°30'0 0.0
2017-Nov-24 20:01N 48°23' W 004°30'0 0.0
2017-Nov-24 19:31N 48°23' W 004°30'0 0.0
2017-Nov-24 19:01N 48°23' W 004°30'0 0.0
2017-Nov-24 18:31N 48°23' W 004°30'0 0.0
2017-Nov-24 18:01N 48°23' W 004°30'0 0.0
2017-Nov-24 17:31N 48°23' W 004°30'0 0.0
2017-Nov-24 17:01N 48°23' W 004°30'0 0.0
2017-Nov-24 16:31N 48°23' W 004°30'713.1
2017-Nov-24 16:01N 48°17' W 004°25'4 7.7
2017-Nov-24 15:30N 48°20' W 004°28'3 5.6
2017-Nov-24 15:01N 48°23' W 004°30'0 0.0
2017-Nov-24 14:30N 48°23' W 004°30'0 0.0
2017-Nov-24 14:00N 48°23' W 004°30'0 0.0
2017-Nov-24 13:31N 48°23' W 004°30'0 0.0
2017-Nov-24 13:00N 48°23' W 004°30'0 0.0
2017-Nov-24 12:30N 48°23' W 004°30'0 0.0
2017-Nov-24 12:00N 48°23' W 004°30'0 0.0
2017-Nov-24 11:31N 48°23' W 004°30'0 0.0
2017-Nov-24 11:01N 48°23' W 004°30'0 0.0
2017-Nov-24 10:31N 48°23' W 004°30'0 0.0
2017-Nov-24 10:01N 48°23' W 004°30'0 0.0
2017-Nov-24 09:30N 48°23' W 004°30'0 0.0
2017-Nov-24 09:00N 48°23' W 004°30'0 0.0
2017-Nov-24 08:30N 48°23' W 004°30'0 0.0
2017-Nov-24 08:00N 48°23' W 004°30'4 8.5
2017-Nov-24 07:31N 48°19' W 004°27'2 4.7
2017-Nov-24 07:00N 48°17' W 004°25'611.2
2017-Nov-24 06:31N 48°22' W 004°29'1 1.9
2017-Nov-24 06:00N 48°23' W 004°30'0 0.4
2017-Nov-24 05:30N 48°23' W 004°30'0 0.0
2017-Nov-24 05:00N 48°23' W 004°30'0 0.0
2017-Nov-24 04:30N 48°23' W 004°30'0 0.0
2017-Nov-24 04:01N 48°23' W 004°30'0 0.0
2017-Nov-24 03:31N 48°23' W 004°30'0 0.0
2017-Nov-24 03:00N 48°23' W 004°30'0 0.0
2017-Nov-24 02:30N 48°23' W 004°30'0 0.0
2017-Nov-24 02:01N 48°23' W 004°30'0 0.0
2017-Nov-24 01:31N 48°23' W 004°30'0 0.0
2017-Nov-24 01:00N 48°23' W 004°30'0 0.0
2017-Nov-24 00:30N 48°23' W 004°30'0 0.0
2017-Nov-24 00:00N 48°23' W 004°30'0 0.0
2017-Nov-23 23:30N 48°23' W 004°30'0 0.0
2017-Nov-23 23:01N 48°23' W 004°30'0 0.0
2017-Nov-23 22:31N 48°23' W 004°30'0 0.0
2017-Nov-23 22:00N 48°23' W 004°30'0 0.0
2017-Nov-23 21:31N 48°23' W 004°30'0 0.0
2017-Nov-23 21:01N 48°23' W 004°30'0 0.0
2017-Nov-23 20:31N 48°23' W 004°30'0 0.0
2017-Nov-23 20:01N 48°23' W 004°30'0 0.0
2017-Nov-23 19:30N 48°23' W 004°30'0 0.0
2017-Nov-23 19:00N 48°23' W 004°30'0 0.0
2017-Nov-23 18:30N 48°23' W 004°30'0 0.0
2017-Nov-23 18:00N 48°23' W 004°30'0 0.0
2017-Nov-23 17:30N 48°23' W 004°30'0 0.0
2017-Nov-23 17:00N 48°23' W 004°30'0 0.0
2017-Nov-23 16:30N 48°23' W 004°30'0 0.0
2017-Nov-23 16:00N 48°23' W 004°30'510.5
2017-Nov-23 15:31N 48°18' W 004°31'4 7.4
2017-Nov-23 15:01N 48°21' W 004°29'2 3.2
2017-Nov-23 14:30N 48°23' W 004°30'0 0.0
2017-Nov-23 14:00N 48°23' W 004°30'0 0.0
2017-Nov-23 13:30N 48°23' W 004°30'0 0.0
2017-Nov-23 13:00N 48°23' W 004°30'2 3.8
2017-Nov-23 12:30N 48°21' W 004°29'3 6.7
2017-Nov-23 12:00N 48°18' W 004°27'2 3.9
2017-Nov-23 11:31N 48°20' W 004°28'3 6.6
2017-Nov-23 11:00N 48°23' W 004°30'0 0.0
2017-Nov-23 10:30N 48°23' W 004°30'0 0.0
2017-Nov-23 10:00N 48°23' W 004°30'0 0.0
2017-Nov-23 09:30N 48°23' W 004°30'0 0.0
2017-Nov-23 09:01N 48°23' W 004°30'0 0.0
2017-Nov-23 08:30N 48°23' W 004°30'0 0.0
2017-Nov-23 08:01N 48°23' W 004°30'0 0.0
2017-Nov-23 07:30N 48°23' W 004°30'4 7.4
2017-Nov-23 07:00N 48°19' W 004°29'1 1.4
2017-Nov-23 06:31N 48°20' W 004°29'3 6.0
2017-Nov-23 06:01N 48°23' W 004°30'0 0.0
2017-Nov-23 05:31N 48°23' W 004°30'0 0.0
2017-Nov-23 05:01N 48°23' W 004°30'0 0.0
2017-Nov-23 04:30N 48°23' W 004°30'0 0.0
2017-Nov-23 04:01N 48°23' W 004°30'0 0.0
2017-Nov-23 03:31N 48°23' W 004°30'0 0.0
2017-Nov-23 03:01N 48°23' W 004°30'0 0.0
2017-Nov-23 02:31N 48°23' W 004°30'0 0.0
2017-Nov-23 02:01N 48°23' W 004°30'0 0.0
2017-Nov-23 01:31N 48°23' W 004°30'0 0.0
2017-Nov-23 01:01N 48°23' W 004°30'0 0.0
2017-Nov-23 00:31N 48°23' W 004°30'0 0.0
2017-Nov-23 00:00N 48°23' W 004°30'0 0.0
2017-Nov-22 23:31N 48°23' W 004°30'0 0.0
2017-Nov-22 23:01N 48°23' W 004°30'0 0.0
2017-Nov-22 22:31N 48°23' W 004°30'0 0.0
2017-Nov-22 22:01N 48°23' W 004°30'0 0.0
2017-Nov-22 21:31N 48°23' W 004°30'0 0.0
2017-Nov-22 21:01N 48°23' W 004°30'0 0.0
2017-Nov-22 20:31N 48°23' W 004°30'0 0.0
2017-Nov-22 20:01N 48°23' W 004°30'0 0.0
2017-Nov-22 19:31N 48°23' W 004°30'  
2017-Nov-20 00:30N 48°23' W 004°30'0 0.0
2017-Nov-20 00:00N 48°23' W 004°30'0 0.0
2017-Nov-19 23:30N 48°23' W 004°30'0 0.0
2017-Nov-19 23:00N 48°23' W 004°30'0 0.0
2017-Nov-19 22:30N 48°23' W 004°30'0 0.0
2017-Nov-19 22:00N 48°23' W 004°30'0 0.0
2017-Nov-19 21:31N 48°23' W 004°30'0 0.0
2017-Nov-19 21:00N 48°23' W 004°30'0 0.0
2017-Nov-19 20:30N 48°23' W 004°30'0 0.0
2017-Nov-19 20:00N 48°23' W 004°30'0 0.0
2017-Nov-19 19:30N 48°23' W 004°30'0 0.0
2017-Nov-19 19:00N 48°23' W 004°30'0 0.0
2017-Nov-19 18:30N 48°23' W 004°30'0 0.0
2017-Nov-19 18:00N 48°23' W 004°30'0 0.0
2017-Nov-19 17:30N 48°23' W 004°30'0 0.0
2017-Nov-19 17:00N 48°23' W 004°30'0 0.0
2017-Nov-19 16:30N 48°23' W 004°30'0 0.0
2017-Nov-19 16:00N 48°23' W 004°30'0 0.0
2017-Nov-19 15:30N 48°23' W 004°30'0 0.0
2017-Nov-19 15:00N 48°23' W 004°30'0 0.0
2017-Nov-19 14:30N 48°23' W 004°30'0 0.0
2017-Nov-19 14:00N 48°23' W 004°30'0 0.0
2017-Nov-19 13:30N 48°23' W 004°30'0 0.0
2017-Nov-19 13:00N 48°23' W 004°30'0 0.0
2017-Nov-19 12:31N 48°23' W 004°30'0 0.0
2017-Nov-19 12:00N 48°23' W 004°30'0 0.0
2017-Nov-19 11:31N 48°23' W 004°30'0 0.0
2017-Nov-19 11:01N 48°23' W 004°30'0 0.0
2017-Nov-19 10:30N 48°23' W 004°30'0 0.0
2017-Nov-19 10:01N 48°23' W 004°30'0 0.0
2017-Nov-19 09:30N 48°23' W 004°30'0 0.0
2017-Nov-19 09:00N 48°23' W 004°30'0 0.0
2017-Nov-19 08:31N 48°23' W 004°30'0 0.0
2017-Nov-19 08:01N 48°23' W 004°30'0 0.0
2017-Nov-19 07:30N 48°23' W 004°30'0 0.0
2017-Nov-19 07:01N 48°23' W 004°30'0 0.0
2017-Nov-19 06:30N 48°23' W 004°30'0 0.0
2017-Nov-19 06:01N 48°23' W 004°30'0 0.0
2017-Nov-19 05:30N 48°23' W 004°30'0 0.0
2017-Nov-19 05:01N 48°23' W 004°30'0 0.0
2017-Nov-19 04:30N 48°23' W 004°30'0 0.0
2017-Nov-19 04:00N 48°23' W 004°30'0 0.0
2017-Nov-19 03:30N 48°23' W 004°30'0 0.0
2017-Nov-19 03:00N 48°23' W 004°30'0 0.0
2017-Nov-19 02:31N 48°23' W 004°30'0 0.0
2017-Nov-19 02:00N 48°23' W 004°30'0 0.0
2017-Nov-19 01:30N 48°23' W 004°30'0 0.0
2017-Nov-19 01:00N 48°23' W 004°30'0 0.0
2017-Nov-19 00:30N 48°23' W 004°30'0 0.0
2017-Nov-19 00:00N 48°23' W 004°30'0 0.0
2017-Nov-18 23:31N 48°23' W 004°30'0 0.0
2017-Nov-18 23:00N 48°23' W 004°30'0 0.0
2017-Nov-18 22:30N 48°23' W 004°30'0 0.0
2017-Nov-18 22:00N 48°23' W 004°30'0 0.0
2017-Nov-18 21:30N 48°23' W 004°30'0 0.0
2017-Nov-18 21:00N 48°23' W 004°30'0 0.0
2017-Nov-18 20:30N 48°23' W 004°30'0 0.0
2017-Nov-18 20:00N 48°23' W 004°30'0 0.0
2017-Nov-18 19:30N 48°23' W 004°30'0 0.0
2017-Nov-18 19:00N 48°23' W 004°30'0 0.0
2017-Nov-18 18:30N 48°23' W 004°30'0 0.0
2017-Nov-18 18:00N 48°23' W 004°30'0 0.0
2017-Nov-18 17:30N 48°23' W 004°30'0 0.0
2017-Nov-18 17:00N 48°23' W 004°30'0 0.0
2017-Nov-18 16:30N 48°23' W 004°30'0 0.0
2017-Nov-18 16:00N 48°23' W 004°30'0 0.0
2017-Nov-18 15:30N 48°23' W 004°30'0 0.0
2017-Nov-18 15:00N 48°23' W 004°30'0 0.0
2017-Nov-18 14:30N 48°23' W 004°30'0 0.0
2017-Nov-18 14:00N 48°23' W 004°30'0 0.0
2017-Nov-18 13:31N 48°23' W 004°30'0 0.0
2017-Nov-18 13:00N 48°23' W 004°30'0 0.0
2017-Nov-18 12:30N 48°23' W 004°30'0 0.0
2017-Nov-18 12:01N 48°23' W 004°30'0 0.0
2017-Nov-18 11:31N 48°23' W 004°30'0 0.0
2017-Nov-18 11:00N 48°23' W 004°30'0 0.0
2017-Nov-18 10:31N 48°23' W 004°30'0 0.0
2017-Nov-18 10:01N 48°23' W 004°30'0 0.0
2017-Nov-18 09:31N 48°23' W 004°30'0 0.0
2017-Nov-18 09:01N 48°23' W 004°30'0 0.0
2017-Nov-18 08:31N 48°23' W 004°30'0 0.0
2017-Nov-18 08:01N 48°23' W 004°30'0 0.0
2017-Nov-18 07:31N 48°23' W 004°30'0 0.0
2017-Nov-18 07:01N 48°23' W 004°30'0 0.0
2017-Nov-18 06:30N 48°23' W 004°30'0 0.0
2017-Nov-18 06:01N 48°23' W 004°30'0 0.0
2017-Nov-18 05:31N 48°23' W 004°30'0 0.0
2017-Nov-18 05:01N 48°23' W 004°30'0 0.0
2017-Nov-18 04:31N 48°23' W 004°30'0 0.0
2017-Nov-18 04:01N 48°23' W 004°30'0 0.0
2017-Nov-18 03:31N 48°23' W 004°30'0 0.0
2017-Nov-18 03:01N 48°23' W 004°30'0 0.0
2017-Nov-18 02:31N 48°23' W 004°30'0 0.0
2017-Nov-18 02:01N 48°23' W 004°30'0 0.0
2017-Nov-18 01:31N 48°23' W 004°30'0 0.0
2017-Nov-18 01:01N 48°23' W 004°30'0 0.0
2017-Nov-18 00:31N 48°23' W 004°30'0 0.0
2017-Nov-18 00:01N 48°23' W 004°30'0 0.0
2017-Nov-17 23:31N 48°23' W 004°30'0 0.0
2017-Nov-17 23:01N 48°23' W 004°30'0 0.0
2017-Nov-17 22:31N 48°23' W 004°30'0 0.0
2017-Nov-17 22:01N 48°23' W 004°30'0 0.0
2017-Nov-17 21:30N 48°23' W 004°30'0 0.0
2017-Nov-17 21:01N 48°23' W 004°30'0 0.0
2017-Nov-17 20:31N 48°23' W 004°30'0 0.0
2017-Nov-17 20:00N 48°23' W 004°30'0 0.0
2017-Nov-17 19:31N 48°23' W 004°30'0 0.0
2017-Nov-17 19:00N 48°23' W 004°30'0 0.0
2017-Nov-17 18:31N 48°23' W 004°30'0 0.0
2017-Nov-17 18:01N 48°23' W 004°30'0 0.0
2017-Nov-17 17:31N 48°23' W 004°30'0 0.0
2017-Nov-17 17:01N 48°23' W 004°30'0 0.0
2017-Nov-17 16:30N 48°23' W 004°30'0 0.0
2017-Nov-17 16:00N 48°23' W 004°30'510.4
2017-Nov-17 15:31N 48°18' W 004°31'4 7.2
2017-Nov-17 15:00N 48°21' W 004°29'2 3.3
2017-Nov-17 14:30N 48°23' W 004°30'0 0.0
2017-Nov-17 14:01N 48°23' W 004°30'0 0.0
2017-Nov-17 13:31N 48°23' W 004°30'0 0.0
2017-Nov-17 13:00N 48°23' W 004°30'3 5.6
2017-Nov-17 12:31N 48°20' W 004°29'3 5.6
2017-Nov-17 12:01N 48°18' W 004°27'2 3.9
2017-Nov-17 11:30N 48°20' W 004°28'3 6.9
2017-Nov-17 11:00N 48°23' W 004°30'0 0.0
2017-Nov-17 10:30N 48°23' W 004°30'0 0.0
2017-Nov-17 10:00N 48°23' W 004°30'0 0.0
2017-Nov-17 09:30N 48°23' W 004°30'0 0.0
2017-Nov-17 09:01N 48°23' W 004°30'0 0.0
2017-Nov-17 08:31N 48°23' W 004°30'0 0.0
2017-Nov-17 08:00N 48°23' W 004°30'0 0.0
2017-Nov-17 07:31N 48°23' W 004°30'4 7.0
2017-Nov-17 07:00N 48°19' W 004°29'1 1.0
2017-Nov-17 06:30N 48°20' W 004°29'3 6.0
2017-Nov-17 06:00N 48°23' W 004°30'0 0.3
2017-Nov-17 05:31N 48°23' W 004°30'0 0.0
2017-Nov-17 05:00N 48°23' W 004°30'0 0.0
2017-Nov-17 04:30N 48°23' W 004°30'0 0.0
2017-Nov-17 04:01N 48°23' W 004°30'0 0.0
2017-Nov-17 03:30N 48°23' W 004°30'0 0.0
2017-Nov-17 03:01N 48°23' W 004°30'0 0.0
2017-Nov-17 02:30N 48°23' W 004°30'0 0.0
2017-Nov-17 02:00N 48°23' W 004°30'0 0.0
2017-Nov-17 01:30N 48°23' W 004°30'0 0.0
2017-Nov-17 01:01N 48°23' W 004°30'0 0.0
2017-Nov-17 00:30N 48°23' W 004°30'0 0.0
2017-Nov-17 00:00N 48°23' W 004°30'0 0.0
2017-Nov-16 23:30N 48°23' W 004°30'0 0.0
2017-Nov-16 23:00N 48°23' W 004°30'0 0.0
2017-Nov-16 22:30N 48°23' W 004°30'0 0.0
2017-Nov-16 22:01N 48°23' W 004°30'0 0.0
2017-Nov-16 21:30N 48°23' W 004°30'0 0.0
2017-Nov-16 21:00N 48°23' W 004°30'0 0.0
2017-Nov-16 20:30N 48°23' W 004°30'0 0.0
2017-Nov-16 20:00N 48°23' W 004°30'0 0.0
2017-Nov-16 19:30N 48°23' W 004°30'0 0.0
2017-Nov-16 19:00N 48°23' W 004°30'0 0.0
2017-Nov-16 18:31N 48°23' W 004°30'0 0.0
2017-Nov-16 18:00N 48°23' W 004°30'0 0.0
2017-Nov-16 17:30N 48°23' W 004°30'0 0.0
2017-Nov-16 17:00N 48°23' W 004°30'0 0.0
2017-Nov-16 16:30N 48°23' W 004°30'4 8.8
2017-Nov-16 16:01N 48°19' W 004°27'0 0.9
2017-Nov-16 15:31N 48°19' W 004°27'5 9.5
2017-Nov-16 15:00N 48°23' W 004°30'0 0.0
2017-Nov-16 14:31N 48°23' W 004°30'0 0.0
2017-Nov-16 14:00N 48°23' W 004°30'0 0.0
2017-Nov-16 13:30N 48°23' W 004°30'0 0.0
2017-Nov-16 13:00N 48°23' W 004°30'0 0.0
2017-Nov-16 12:30N 48°23' W 004°30'0 0.0
2017-Nov-16 12:00N 48°23' W 004°30'0 0.0
2017-Nov-16 11:30N 48°23' W 004°30'0 0.0
2017-Nov-16 11:00N 48°23' W 004°30'0 0.0
2017-Nov-16 10:30N 48°23' W 004°30'0 0.0
2017-Nov-16 10:00N 48°23' W 004°30'0 0.0
2017-Nov-16 09:30N 48°23' W 004°30'0 0.0
2017-Nov-16 09:00N 48°23' W 004°30'0 0.0
2017-Nov-16 08:30N 48°23' W 004°30'0 0.0
2017-Nov-16 08:00N 48°23' W 004°30'0 0.0
2017-Nov-16 07:30N 48°23' W 004°30'611.1
2017-Nov-16 07:01N 48°18' W 004°25'3 5.0
2017-Nov-16 06:31N 48°20' W 004°28'3 6.3
2017-Nov-16 06:00N 48°23' W 004°30'0 0.0
2017-Nov-16 05:31N 48°23' W 004°30'0 0.0
2017-Nov-16 05:00N 48°23' W 004°30'0 0.0
2017-Nov-16 04:30N 48°23' W 004°30'0 0.0
2017-Nov-16 04:01N 48°23' W 004°30'0 0.0
2017-Nov-16 03:30N 48°23' W 004°30'0 0.0
2017-Nov-16 03:00N 48°23' W 004°30'0 0.0
2017-Nov-16 02:30N 48°23' W 004°30'0 0.0
2017-Nov-16 02:00N 48°23' W 004°30'0 0.0
2017-Nov-16 01:31N 48°23' W 004°30'0 0.0
2017-Nov-16 01:00N 48°23' W 004°30'0 0.0
2017-Nov-16 00:30N 48°23' W 004°30'0 0.0
2017-Nov-16 00:00N 48°23' W 004°30'0 0.0
2017-Nov-15 23:30N 48°23' W 004°30'0 0.0
2017-Nov-15 23:00N 48°23' W 004°30'0 0.0
2017-Nov-15 22:30N 48°23' W 004°30'0 0.0
2017-Nov-15 22:01N 48°23' W 004°30'0 0.0
2017-Nov-15 21:30N 48°23' W 004°30'0 0.0
2017-Nov-15 21:00N 48°23' W 004°30'0 0.0
2017-Nov-15 20:30N 48°23' W 004°30'0 0.0
2017-Nov-15 20:00N 48°23' W 004°30'0 0.0
2017-Nov-15 19:30N 48°23' W 004°30'0 0.0
2017-Nov-15 19:00N 48°23' W 004°30'0 0.0
2017-Nov-15 18:30N 48°23' W 004°30'0 0.0
2017-Nov-15 18:00N 48°23' W 004°30'0 0.0
2017-Nov-15 17:31N 48°23' W 004°30'0 0.0
2017-Nov-15 17:00N 48°23' W 004°30'0 0.0
2017-Nov-15 16:30N 48°23' W 004°30'713.2
2017-Nov-15 16:00N 48°17' W 004°25'611.6
2017-Nov-15 15:30N 48°22' W 004°29'1 1.6
2017-Nov-15 15:01N 48°23' W 004°30'0 0.0
2017-Nov-15 14:30N 48°23' W 004°30'0 0.0
2017-Nov-15 14:00N 48°23' W 004°30'0 0.0
2017-Nov-15 13:30N 48°23' W 004°30'0 0.0
2017-Nov-15 13:00N 48°23' W 004°30'0 0.0
2017-Nov-15 12:30N 48°23' W 004°30'0 0.0
2017-Nov-15 12:00N 48°23' W 004°30'0 0.0
2017-Nov-15 11:30N 48°23' W 004°30'0 0.0
2017-Nov-15 11:01N 48°23' W 004°30'0 0.0
2017-Nov-15 10:30N 48°23' W 004°30'0 0.0
2017-Nov-15 10:01N 48°23' W 004°30'611.6
2017-Nov-15 09:31N 48°19' W 004°37'2 3.1
2017-Nov-15 09:00N 48°20' W 004°39'612.6
2017-Nov-15 08:30N 48°22' W 004°30'1 2.1
2017-Nov-15 08:00N 48°23' W 004°30'0 0.0
2017-Nov-15 07:31N 48°23' W 004°30'510.4
2017-Nov-15 07:00N 48°18' W 004°26'2 4.1
2017-Nov-15 06:31N 48°20' W 004°28'3 6.6
2017-Nov-15 06:01N 48°23' W 004°30'0 0.0
2017-Nov-15 05:31N 48°23' W 004°30'0 0.0
2017-Nov-15 05:01N 48°23' W 004°30'0 0.0
2017-Nov-15 04:31N 48°23' W 004°30'0 0.0
2017-Nov-15 04:01N 48°23' W 004°30'0 0.0
2017-Nov-15 03:31N 48°23' W 004°30'0 0.0
2017-Nov-15 03:01N 48°23' W 004°30'0 0.0
2017-Nov-15 02:31N 48°23' W 004°30'0 0.0
2017-Nov-15 02:00N 48°23' W 004°30'  

Dump ship's entire track history